sensor_id;sensor_type;location;lat;lon;timestamp;noise_LAeq;noise_LA_min;noise_LA_max;noise_LA01;noise_LA95
67320;Laerm;57665;51.436;5.978;2022-09-17T00:00:03;37.69;36.68;38.72;;
67320;Laerm;57665;51.436;5.978;2022-09-17T00:00:13;39.86;36.91;47.35;;
67320;Laerm;57665;51.436;5.978;2022-09-17T00:00:23;37.57;36.54;38.65;;
67320;Laerm;57665;51.436;5.978;2022-09-17T00:00:34;37.54;36.43;38.43;;
67320;Laerm;57665;51.436;5.978;2022-09-17T00:00:45;38.27;36.87;40.12;;
67320;Laerm;57665;51.436;5.978;2022-09-17T00:00:55;38.07;36.79;40.11;;
67320;Laerm;57665;51.436;5.978;2022-09-17T00:01:09;37.69;36.34;38.87;;
67320;Laerm;57665;51.436;5.978;2022-09-17T00:01:22;37.64;36.47;38.51;;
67320;Laerm;57665;51.436;5.978;2022-09-17T00:01:33;37.61;36.48;38.81;;
67320;Laerm;57665;51.436;5.978;2022-09-17T00:01:43;37.71;36.54;39.61;;
67320;Laerm;57665;51.436;5.978;2022-09-17T00:01:54;37.72;36.50;38.75;;
67320;Laerm;57665;51.436;5.978;2022-09-17T00:02:04;37.66;36.43;38.81;;
67320;Laerm;57665;51.436;5.978;2022-09-17T00:02:16;37.72;36.70;38.61;;
67320;Laerm;57665;51.436;5.978;2022-09-17T00:02:26;37.68;36.83;38.81;;
67320;Laerm;57665;51.436;5.978;2022-09-17T00:02:36;37.59;36.49;38.71;;
67320;Laerm;57665;51.436;5.978;2022-09-17T00:02:50;37.54;36.21;38.58;;
67320;Laerm;57665;51.436;5.978;2022-09-17T00:03:02;37.55;36.27;38.65;;
67320;Laerm;57665;51.436;5.978;2022-09-17T00:03:13;37.54;36.49;38.50;;
67320;Laerm;57665;51.436;5.978;2022-09-17T00:03:24;37.51;36.33;38.75;;
67320;Laerm;57665;51.436;5.978;2022-09-17T00:03:34;37.57;36.27;38.58;;
67320;Laerm;57665;51.436;5.978;2022-09-17T00:03:47;37.56;36.47;38.48;;
67320;Laerm;57665;51.436;5.978;2022-09-17T00:03:58;37.57;36.38;38.51;;
67320;Laerm;57665;51.436;5.978;2022-09-17T00:04:13;37.53;36.28;38.40;;
67320;Laerm;57665;51.436;5.978;2022-09-17T00:04:24;37.58;36.42;38.59;;
67320;Laerm;57665;51.436;5.978;2022-09-17T00:04:34;37.58;36.45;38.79;;
67320;Laerm;57665;51.436;5.978;2022-09-17T00:04:46;37.58;36.63;38.73;;
67320;Laerm;57665;51.436;5.978;2022-09-17T00:04:56;37.62;36.70;38.81;;
67320;Laerm;57665;51.436;5.978;2022-09-17T00:05:06;37.67;36.70;38.75;;
67320;Laerm;57665;51.436;5.978;2022-09-17T00:05:16;38.12;36.87;39.52;;
67320;Laerm;57665;51.436;5.978;2022-09-17T00:05:27;38.30;36.35;43.61;;
67320;Laerm;57665;51.436;5.978;2022-09-17T00:05:37;37.51;36.29;38.61;;
67320;Laerm;57665;51.436;5.978;2022-09-17T00:05:47;37.55;36.20;38.60;;
67320;Laerm;57665;51.436;5.978;2022-09-17T00:06:04;38.15;36.56;52.70;;
67320;Laerm;57665;51.436;5.978;2022-09-17T00:06:15;37.59;36.47;40.03;;
67320;Laerm;57665;51.436;5.978;2022-09-17T00:06:25;37.56;36.35;38.53;;
67320;Laerm;57665;51.436;5.978;2022-09-17T00:06:36;37.54;36.51;38.51;;
67320;Laerm;57665;51.436;5.978;2022-09-17T00:06:46;37.57;36.56;38.54;;
67320;Laerm;57665;51.436;5.978;2022-09-17T00:06:56;37.62;36.49;38.83;;
67320;Laerm;57665;51.436;5.978;2022-09-17T00:07:06;37.64;36.64;38.66;;
67320;Laerm;57665;51.436;5.978;2022-09-17T00:07:17;37.54;36.44;38.40;;
67320;Laerm;57665;51.436;5.978;2022-09-17T00:07:27;37.60;36.40;38.62;;
67320;Laerm;57665;51.436;5.978;2022-09-17T00:07:37;37.60;36.52;38.66;;
67320;Laerm;57665;51.436;5.978;2022-09-17T00:07:48;37.63;36.34;38.64;;
67320;Laerm;57665;51.436;5.978;2022-09-17T00:07:58;37.61;36.11;38.79;;
67320;Laerm;57665;51.436;5.978;2022-09-17T00:08:09;37.68;36.75;39.08;;
67320;Laerm;57665;51.436;5.978;2022-09-17T00:08:20;38.59;36.95;41.23;;
67320;Laerm;57665;51.436;5.978;2022-09-17T00:08:31;39.63;36.65;49.77;;
67320;Laerm;57665;51.436;5.978;2022-09-17T00:08:41;37.57;36.44;38.40;;
67320;Laerm;57665;51.436;5.978;2022-09-17T00:08:52;37.58;36.57;38.58;;
67320;Laerm;57665;51.436;5.978;2022-09-17T00:09:03;37.52;36.34;38.49;;
67320;Laerm;57665;51.436;5.978;2022-09-17T00:09:14;37.62;36.73;38.80;;
67320;Laerm;57665;51.436;5.978;2022-09-17T00:09:24;37.58;36.36;38.55;;
67320;Laerm;57665;51.436;5.978;2022-09-17T00:09:35;37.57;36.47;38.50;;
67320;Laerm;57665;51.436;5.978;2022-09-17T00:09:45;37.59;36.57;38.43;;
67320;Laerm;57665;51.436;5.978;2022-09-17T00:09:55;37.51;36.53;38.52;;
67320;Laerm;57665;51.436;5.978;2022-09-17T00:10:05;37.58;36.31;38.82;;
67320;Laerm;57665;51.436;5.978;2022-09-17T00:10:16;37.58;36.39;38.36;;
67320;Laerm;57665;51.436;5.978;2022-09-17T00:10:26;37.58;36.48;38.59;;
67320;Laerm;57665;51.436;5.978;2022-09-17T00:10:37;37.61;36.47;38.82;;
67320;Laerm;57665;51.436;5.978;2022-09-17T00:10:47;37.56;36.48;38.44;;
67320;Laerm;57665;51.436;5.978;2022-09-17T00:11:04;37.60;36.31;38.68;;
67320;Laerm;57665;51.436;5.978;2022-09-17T00:11:16;37.52;36.25;38.66;;
67320;Laerm;57665;51.436;5.978;2022-09-17T00:11:28;37.56;36.21;38.35;;
67320;Laerm;57665;51.436;5.978;2022-09-17T00:11:40;37.58;36.59;38.58;;
67320;Laerm;57665;51.436;5.978;2022-09-17T00:11:50;37.60;36.50;38.59;;
67320;Laerm;57665;51.436;5.978;2022-09-17T00:12:01;37.63;36.65;38.80;;
67320;Laerm;57665;51.436;5.978;2022-09-17T00:12:11;37.68;36.66;38.73;;
67320;Laerm;57665;51.436;5.978;2022-09-17T00:12:21;37.66;36.64;38.96;;
67320;Laerm;57665;51.436;5.978;2022-09-17T00:12:31;37.66;36.70;38.55;;
67320;Laerm;57665;51.436;5.978;2022-09-17T00:12:41;37.63;36.61;38.64;;
67320;Laerm;57665;51.436;5.978;2022-09-17T00:12:52;37.67;36.42;38.73;;
67320;Laerm;57665;51.436;5.978;2022-09-17T00:13:02;37.65;36.46;38.67;;
67320;Laerm;57665;51.436;5.978;2022-09-17T00:13:12;37.57;36.16;38.67;;
67320;Laerm;57665;51.436;5.978;2022-09-17T00:13:23;37.53;36.25;38.54;;
67320;Laerm;57665;51.436;5.978;2022-09-17T00:13:33;37.57;36.58;38.76;;
67320;Laerm;57665;51.436;5.978;2022-09-17T00:13:43;37.59;36.52;38.62;;
67320;Laerm;57665;51.436;5.978;2022-09-17T00:13:54;37.59;36.73;38.76;;
67320;Laerm;57665;51.436;5.978;2022-09-17T00:14:05;37.53;36.40;38.65;;
67320;Laerm;57665;51.436;5.978;2022-09-17T00:14:16;37.56;36.67;39.07;;
67320;Laerm;57665;51.436;5.978;2022-09-17T00:14:27;37.65;36.53;38.62;;
67320;Laerm;57665;51.436;5.978;2022-09-17T00:14:37;37.91;36.82;40.76;;
67320;Laerm;57665;51.436;5.978;2022-09-17T00:14:49;37.77;36.73;39.09;;
67320;Laerm;57665;51.436;5.978;2022-09-17T00:14:59;37.66;36.54;38.90;;
67320;Laerm;57665;51.436;5.978;2022-09-17T00:15:09;37.63;36.72;38.77;;
67320;Laerm;57665;51.436;5.978;2022-09-17T00:15:20;37.58;36.26;38.72;;
67320;Laerm;57665;51.436;5.978;2022-09-17T00:15:30;37.64;36.54;38.60;;
67320;Laerm;57665;51.436;5.978;2022-09-17T00:15:41;37.66;36.57;38.77;;
67320;Laerm;57665;51.436;5.978;2022-09-17T00:15:52;37.67;36.57;38.62;;
67320;Laerm;57665;51.436;5.978;2022-09-17T00:16:03;37.65;36.68;38.70;;
67320;Laerm;57665;51.436;5.978;2022-09-17T00:16:19;37.57;36.46;38.87;;
67320;Laerm;57665;51.436;5.978;2022-09-17T00:16:32;38.59;36.74;41.98;;
67320;Laerm;57665;51.436;5.978;2022-09-17T00:16:44;39.09;36.89;43.15;;
67320;Laerm;57665;51.436;5.978;2022-09-17T00:16:54;37.78;36.52;38.74;;
67320;Laerm;57665;51.436;5.978;2022-09-17T00:17:05;37.79;36.65;39.08;;
67320;Laerm;57665;51.436;5.978;2022-09-17T00:17:15;37.86;36.73;38.95;;
67320;Laerm;57665;51.436;5.978;2022-09-17T00:17:25;37.96;36.79;38.95;;
67320;Laerm;57665;51.436;5.978;2022-09-17T00:17:35;37.97;36.88;38.85;;
67320;Laerm;57665;51.436;5.978;2022-09-17T00:17:45;38.31;36.88;39.60;;
67320;Laerm;57665;51.436;5.978;2022-09-17T00:17:56;55.31;38.27;62.76;;
67320;Laerm;57665;51.436;5.978;2022-09-17T00:18:07;60.03;56.67;62.98;;
67320;Laerm;57665;51.436;5.978;2022-09-17T00:18:17;59.87;51.43;64.60;;
67320;Laerm;57665;51.436;5.978;2022-09-17T00:18:27;42.52;37.22;51.05;;
67320;Laerm;57665;51.436;5.978;2022-09-17T00:18:38;37.68;36.44;38.83;;
67320;Laerm;57665;51.436;5.978;2022-09-17T00:18:50;37.60;36.71;38.75;;
67320;Laerm;57665;51.436;5.978;2022-09-17T00:19:01;37.55;36.45;38.44;;
67320;Laerm;57665;51.436;5.978;2022-09-17T00:19:16;37.58;36.44;38.68;;
67320;Laerm;57665;51.436;5.978;2022-09-17T00:19:26;37.56;36.57;38.95;;
67320;Laerm;57665;51.436;5.978;2022-09-17T00:19:37;37.53;36.57;38.48;;
67320;Laerm;57665;51.436;5.978;2022-09-17T00:19:48;37.51;36.21;38.66;;
67320;Laerm;57665;51.436;5.978;2022-09-17T00:19:58;37.52;36.20;38.58;;
67320;Laerm;57665;51.436;5.978;2022-09-17T00:20:09;37.55;36.32;38.33;;
67320;Laerm;57665;51.436;5.978;2022-09-17T00:20:19;37.53;36.28;38.42;;
67320;Laerm;57665;51.436;5.978;2022-09-17T00:20:30;37.51;36.16;38.39;;
67320;Laerm;57665;51.436;5.978;2022-09-17T00:20:42;37.51;36.57;38.62;;
67320;Laerm;57665;51.436;5.978;2022-09-17T00:20:52;37.54;36.40;38.61;;
67320;Laerm;57665;51.436;5.978;2022-09-17T00:21:03;37.54;36.65;38.59;;
67320;Laerm;57665;51.436;5.978;2022-09-17T00:21:17;37.50;36.44;38.45;;
67320;Laerm;57665;51.436;5.978;2022-09-17T00:21:28;37.48;36.31;38.58;;
67320;Laerm;57665;51.436;5.978;2022-09-17T00:21:39;37.49;36.34;38.83;;
67320;Laerm;57665;51.436;5.978;2022-09-17T00:21:49;37.49;36.51;38.47;;
67320;Laerm;57665;51.436;5.978;2022-09-17T00:22:00;37.43;36.40;38.52;;
67320;Laerm;57665;51.436;5.978;2022-09-17T00:22:10;37.46;36.41;38.70;;
67320;Laerm;57665;51.436;5.978;2022-09-17T00:22:21;37.48;36.39;38.56;;
67320;Laerm;57665;51.436;5.978;2022-09-17T00:22:31;37.53;36.33;38.39;;
67320;Laerm;57665;51.436;5.978;2022-09-17T00:22:41;37.49;36.52;38.78;;
67320;Laerm;57665;51.436;5.978;2022-09-17T00:22:52;37.49;36.11;38.34;;
67320;Laerm;57665;51.436;5.978;2022-09-17T00:23:02;37.56;36.46;38.38;;
67320;Laerm;57665;51.436;5.978;2022-09-17T00:23:13;37.53;36.37;38.61;;
67320;Laerm;57665;51.436;5.978;2022-09-17T00:23:23;37.48;36.59;38.40;;
67320;Laerm;57665;51.436;5.978;2022-09-17T00:23:33;37.61;36.48;38.79;;
67320;Laerm;57665;51.436;5.978;2022-09-17T00:23:44;37.55;36.33;38.42;;
67320;Laerm;57665;51.436;5.978;2022-09-17T00:23:58;37.56;36.65;38.50;;
67320;Laerm;57665;51.436;5.978;2022-09-17T00:24:09;37.52;36.27;38.34;;
67320;Laerm;57665;51.436;5.978;2022-09-17T00:24:20;37.57;36.55;38.49;;
67320;Laerm;57665;51.436;5.978;2022-09-17T00:24:30;37.53;36.58;38.52;;
67320;Laerm;57665;51.436;5.978;2022-09-17T00:24:40;37.52;36.48;38.51;;
67320;Laerm;57665;51.436;5.978;2022-09-17T00:24:51;37.59;36.37;38.49;;
67320;Laerm;57665;51.436;5.978;2022-09-17T00:25:01;37.57;36.77;38.64;;
67320;Laerm;57665;51.436;5.978;2022-09-17T00:25:12;37.61;36.59;38.67;;
67320;Laerm;57665;51.436;5.978;2022-09-17T00:25:22;37.66;36.62;39.02;;
67320;Laerm;57665;51.436;5.978;2022-09-17T00:25:32;37.61;36.15;38.55;;
67320;Laerm;57665;51.436;5.978;2022-09-17T00:25:43;37.64;36.73;38.50;;
67320;Laerm;57665;51.436;5.978;2022-09-17T00:25:54;37.57;36.38;38.90;;
67320;Laerm;57665;51.436;5.978;2022-09-17T00:26:04;37.54;36.69;38.73;;
67320;Laerm;57665;51.436;5.978;2022-09-17T00:26:15;37.83;36.47;49.83;;
67320;Laerm;57665;51.436;5.978;2022-09-17T00:26:25;37.60;36.70;38.54;;
67320;Laerm;57665;51.436;5.978;2022-09-17T00:26:36;37.66;36.55;38.63;;
67320;Laerm;57665;51.436;5.978;2022-09-17T00:26:46;37.64;36.64;38.93;;
67320;Laerm;57665;51.436;5.978;2022-09-17T00:26:57;37.66;36.65;39.09;;
67320;Laerm;57665;51.436;5.978;2022-09-17T00:27:07;37.65;36.62;38.76;;
67320;Laerm;57665;51.436;5.978;2022-09-17T00:27:17;37.67;36.57;38.81;;
67320;Laerm;57665;51.436;5.978;2022-09-17T00:27:28;37.69;36.78;39.10;;
67320;Laerm;57665;51.436;5.978;2022-09-17T00:27:38;37.74;36.73;38.82;;
67320;Laerm;57665;51.436;5.978;2022-09-17T00:27:48;37.63;36.47;38.99;;
67320;Laerm;57665;51.436;5.978;2022-09-17T00:27:58;37.54;36.57;38.76;;
67320;Laerm;57665;51.436;5.978;2022-09-17T00:28:09;37.53;36.43;38.67;;
67320;Laerm;57665;51.436;5.978;2022-09-17T00:28:20;37.56;36.66;38.56;;
67320;Laerm;57665;51.436;5.978;2022-09-17T00:28:30;37.51;36.42;38.87;;
67320;Laerm;57665;51.436;5.978;2022-09-17T00:28:40;37.50;36.58;38.41;;
67320;Laerm;57665;51.436;5.978;2022-09-17T00:28:54;37.48;36.61;38.50;;
67320;Laerm;57665;51.436;5.978;2022-09-17T00:29:05;37.48;36.34;38.59;;
67320;Laerm;57665;51.436;5.978;2022-09-17T00:29:15;37.50;36.32;38.51;;
67320;Laerm;57665;51.436;5.978;2022-09-17T00:29:25;37.49;36.43;38.59;;
67320;Laerm;57665;51.436;5.978;2022-09-17T00:29:36;37.47;36.33;38.42;;
67320;Laerm;57665;51.436;5.978;2022-09-17T00:29:49;37.48;36.48;38.43;;
67320;Laerm;57665;51.436;5.978;2022-09-17T00:29:59;37.48;36.42;38.53;;
67320;Laerm;57665;51.436;5.978;2022-09-17T00:30:09;37.53;36.53;38.51;;
67320;Laerm;57665;51.436;5.978;2022-09-17T00:30:20;37.58;36.73;38.75;;
67320;Laerm;57665;51.436;5.978;2022-09-17T00:30:30;37.65;36.41;38.87;;
67320;Laerm;57665;51.436;5.978;2022-09-17T00:30:41;37.55;36.31;38.34;;
67320;Laerm;57665;51.436;5.978;2022-09-17T00:30:52;37.56;35.97;38.61;;
67320;Laerm;57665;51.436;5.978;2022-09-17T00:31:06;37.52;36.17;38.48;;
67320;Laerm;57665;51.436;5.978;2022-09-17T00:31:16;37.51;36.09;38.69;;
67320;Laerm;57665;51.436;5.978;2022-09-17T00:31:27;37.53;36.63;38.57;;
67320;Laerm;57665;51.436;5.978;2022-09-17T00:31:38;37.53;36.46;38.48;;
67320;Laerm;57665;51.436;5.978;2022-09-17T00:31:48;37.55;36.52;38.53;;
67320;Laerm;57665;51.436;5.978;2022-09-17T00:31:59;37.55;36.43;38.88;;
67320;Laerm;57665;51.436;5.978;2022-09-17T00:32:09;37.81;36.46;41.57;;
67320;Laerm;57665;51.436;5.978;2022-09-17T00:32:19;38.74;36.88;41.63;;
67320;Laerm;57665;51.436;5.978;2022-09-17T00:32:29;37.87;36.47;38.94;;
67320;Laerm;57665;51.436;5.978;2022-09-17T00:32:39;37.60;36.49;38.54;;
67320;Laerm;57665;51.436;5.978;2022-09-17T00:32:50;37.61;36.39;38.66;;
67320;Laerm;57665;51.436;5.978;2022-09-17T00:33:02;37.58;36.63;40.99;;
67320;Laerm;57665;51.436;5.978;2022-09-17T00:33:13;37.61;36.62;38.96;;
67320;Laerm;57665;51.436;5.978;2022-09-17T00:33:24;37.57;36.54;38.71;;
67320;Laerm;57665;51.436;5.978;2022-09-17T00:33:34;37.50;36.24;38.56;;
67320;Laerm;57665;51.436;5.978;2022-09-17T00:33:45;37.48;36.51;38.38;;
67320;Laerm;57665;51.436;5.978;2022-09-17T00:33:56;37.49;36.37;38.59;;
67320;Laerm;57665;51.436;5.978;2022-09-17T00:34:06;37.45;36.25;38.60;;
67320;Laerm;57665;51.436;5.978;2022-09-17T00:34:17;37.57;36.56;38.46;;
67320;Laerm;57665;51.436;5.978;2022-09-17T00:34:27;37.52;36.33;38.46;;
67320;Laerm;57665;51.436;5.978;2022-09-17T00:34:37;37.49;36.34;38.66;;
67320;Laerm;57665;51.436;5.978;2022-09-17T00:34:48;37.48;36.48;38.54;;
67320;Laerm;57665;51.436;5.978;2022-09-17T00:34:58;37.55;36.36;38.85;;
67320;Laerm;57665;51.436;5.978;2022-09-17T00:35:08;37.53;36.31;38.76;;
67320;Laerm;57665;51.436;5.978;2022-09-17T00:35:18;37.66;36.57;39.14;;
67320;Laerm;57665;51.436;5.978;2022-09-17T00:35:29;37.50;36.49;38.93;;
67320;Laerm;57665;51.436;5.978;2022-09-17T00:35:39;37.39;36.50;38.35;;
67320;Laerm;57665;51.436;5.978;2022-09-17T00:35:59;37.45;36.07;38.37;;
67320;Laerm;57665;51.436;5.978;2022-09-17T00:36:09;37.50;36.29;38.51;;
67320;Laerm;57665;51.436;5.978;2022-09-17T00:36:21;37.40;36.28;38.45;;
67320;Laerm;57665;51.436;5.978;2022-09-17T00:36:35;37.44;36.28;38.29;;
67320;Laerm;57665;51.436;5.978;2022-09-17T00:36:45;37.44;36.38;38.51;;
67320;Laerm;57665;51.436;5.978;2022-09-17T00:36:56;37.50;36.51;38.38;;
67320;Laerm;57665;51.436;5.978;2022-09-17T00:37:06;37.54;36.02;38.68;;
67320;Laerm;57665;51.436;5.978;2022-09-17T00:37:19;37.51;36.62;38.48;;
67320;Laerm;57665;51.436;5.978;2022-09-17T00:37:29;37.46;36.30;38.94;;
67320;Laerm;57665;51.436;5.978;2022-09-17T00:37:39;37.51;36.24;38.61;;
67320;Laerm;57665;51.436;5.978;2022-09-17T00:37:50;37.49;36.49;38.52;;
67320;Laerm;57665;51.436;5.978;2022-09-17T00:38:00;37.52;36.22;38.56;;
67320;Laerm;57665;51.436;5.978;2022-09-17T00:38:10;37.52;36.44;38.42;;
67320;Laerm;57665;51.436;5.978;2022-09-17T00:38:21;37.57;36.43;38.68;;
67320;Laerm;57665;51.436;5.978;2022-09-17T00:38:31;37.55;36.48;38.66;;
67320;Laerm;57665;51.436;5.978;2022-09-17T00:38:41;57.04;36.73;68.11;;
67320;Laerm;57665;51.436;5.978;2022-09-17T00:38:53;46.56;37.22;59.87;;
67320;Laerm;57665;51.436;5.978;2022-09-17T00:39:04;38.17;36.74;40.10;;
67320;Laerm;57665;51.436;5.978;2022-09-17T00:39:14;37.62;36.61;38.72;;
67320;Laerm;57665;51.436;5.978;2022-09-17T00:39:25;37.57;36.55;38.62;;
67320;Laerm;57665;51.436;5.978;2022-09-17T00:39:35;37.56;36.55;38.60;;
67320;Laerm;57665;51.436;5.978;2022-09-17T00:39:45;37.62;36.59;38.71;;
67320;Laerm;57665;51.436;5.978;2022-09-17T00:39:55;37.64;36.23;38.66;;
67320;Laerm;57665;51.436;5.978;2022-09-17T00:40:06;37.59;36.80;38.71;;
67320;Laerm;57665;51.436;5.978;2022-09-17T00:40:17;37.51;36.36;38.57;;
67320;Laerm;57665;51.436;5.978;2022-09-17T00:40:28;37.57;36.31;38.82;;
67320;Laerm;57665;51.436;5.978;2022-09-17T00:40:38;37.62;36.48;38.94;;
67320;Laerm;57665;51.436;5.978;2022-09-17T00:40:48;37.56;36.62;38.59;;
67320;Laerm;57665;51.436;5.978;2022-09-17T00:40:59;37.61;36.61;38.48;;
67320;Laerm;57665;51.436;5.978;2022-09-17T00:41:09;37.55;36.58;38.47;;
67320;Laerm;57665;51.436;5.978;2022-09-17T00:41:20;37.51;36.45;38.95;;
67320;Laerm;57665;51.436;5.978;2022-09-17T00:41:31;37.57;36.29;39.33;;
67320;Laerm;57665;51.436;5.978;2022-09-17T00:41:42;37.55;36.34;38.62;;
67320;Laerm;57665;51.436;5.978;2022-09-17T00:41:52;37.54;36.46;38.61;;
67320;Laerm;57665;51.436;5.978;2022-09-17T00:42:02;37.43;36.36;38.31;;
67320;Laerm;57665;51.436;5.978;2022-09-17T00:42:19;37.54;36.57;38.58;;
67320;Laerm;57665;51.436;5.978;2022-09-17T00:42:30;37.51;36.51;38.75;;
67320;Laerm;57665;51.436;5.978;2022-09-17T00:42:40;37.60;36.43;38.53;;
67320;Laerm;57665;51.436;5.978;2022-09-17T00:42:50;37.51;36.33;38.60;;
67320;Laerm;57665;51.436;5.978;2022-09-17T00:43:02;37.53;36.59;38.29;;
67320;Laerm;57665;51.436;5.978;2022-09-17T00:43:12;37.49;36.53;38.65;;
67320;Laerm;57665;51.436;5.978;2022-09-17T00:43:50;37.55;36.25;38.82;;
67320;Laerm;57665;51.436;5.978;2022-09-17T00:44:34;37.47;36.52;38.41;;
67320;Laerm;57665;51.436;5.978;2022-09-17T00:44:41;37.47;36.10;38.56;;
67320;Laerm;57665;51.436;5.978;2022-09-17T00:44:53;37.42;36.36;38.36;;
67320;Laerm;57665;51.436;5.978;2022-09-17T00:45:04;37.49;36.67;38.55;;
67320;Laerm;57665;51.436;5.978;2022-09-17T00:45:14;37.43;36.15;38.46;;
67320;Laerm;57665;51.436;5.978;2022-09-17T00:45:24;37.43;36.26;38.47;;
67320;Laerm;57665;51.436;5.978;2022-09-17T00:45:36;37.47;36.39;38.61;;
67320;Laerm;57665;51.436;5.978;2022-09-17T00:45:46;37.44;36.59;38.50;;
67320;Laerm;57665;51.436;5.978;2022-09-17T00:45:56;37.43;36.61;38.30;;
67320;Laerm;57665;51.436;5.978;2022-09-17T00:46:13;37.50;36.51;38.33;;
67320;Laerm;57665;51.436;5.978;2022-09-17T00:46:37;37.50;36.21;40.17;;
67320;Laerm;57665;51.436;5.978;2022-09-17T00:46:47;37.53;36.53;40.60;;
67320;Laerm;57665;51.436;5.978;2022-09-17T00:46:58;37.53;36.61;38.62;;
67320;Laerm;57665;51.436;5.978;2022-09-17T00:47:11;37.50;36.44;38.63;;
67320;Laerm;57665;51.436;5.978;2022-09-17T00:47:40;37.51;36.47;38.46;;
67320;Laerm;57665;51.436;5.978;2022-09-17T00:47:54;37.64;36.44;38.83;;
67320;Laerm;57665;51.436;5.978;2022-09-17T00:48:08;37.53;36.15;38.76;;
67320;Laerm;57665;51.436;5.978;2022-09-17T00:48:19;37.57;36.46;38.53;;
67320;Laerm;57665;51.436;5.978;2022-09-17T00:48:29;37.65;36.71;39.41;;
67320;Laerm;57665;51.436;5.978;2022-09-17T00:48:40;37.62;36.79;38.59;;
67320;Laerm;57665;51.436;5.978;2022-09-17T00:48:51;37.48;36.51;38.57;;
67320;Laerm;57665;51.436;5.978;2022-09-17T00:49:09;37.61;36.47;38.58;;
67320;Laerm;57665;51.436;5.978;2022-09-17T00:49:23;37.53;36.54;39.01;;
67320;Laerm;57665;51.436;5.978;2022-09-17T00:49:36;37.53;36.35;38.71;;
67320;Laerm;57665;51.436;5.978;2022-09-17T00:49:48;37.59;36.61;38.70;;
67320;Laerm;57665;51.436;5.978;2022-09-17T00:50:09;37.62;36.67;38.66;;
67320;Laerm;57665;51.436;5.978;2022-09-17T00:50:37;37.54;36.46;38.66;;
67320;Laerm;57665;51.436;5.978;2022-09-17T00:50:48;37.53;36.44;38.69;;
67320;Laerm;57665;51.436;5.978;2022-09-17T00:50:59;37.55;36.33;38.66;;
67320;Laerm;57665;51.436;5.978;2022-09-17T00:51:10;37.48;36.27;38.50;;
67320;Laerm;57665;51.436;5.978;2022-09-17T00:51:36;37.53;36.45;38.52;;
67320;Laerm;57665;51.436;5.978;2022-09-17T00:51:50;38.66;36.45;46.46;;
67320;Laerm;57665;51.436;5.978;2022-09-17T00:52:05;37.61;36.38;39.09;;
67320;Laerm;57665;51.436;5.978;2022-09-17T00:52:19;37.54;36.56;38.60;;
67320;Laerm;57665;51.436;5.978;2022-09-17T00:52:32;38.36;36.67;40.88;;
67320;Laerm;57665;51.436;5.978;2022-09-17T00:52:56;37.64;36.43;38.87;;
67320;Laerm;57665;51.436;5.978;2022-09-17T00:53:13;37.54;36.22;39.14;;
67320;Laerm;57665;51.436;5.978;2022-09-17T00:53:24;37.55;36.35;39.31;;
67320;Laerm;57665;51.436;5.978;2022-09-17T00:53:34;37.57;36.29;38.59;;
67320;Laerm;57665;51.436;5.978;2022-09-17T00:53:45;37.57;36.66;38.53;;
67320;Laerm;57665;51.436;5.978;2022-09-17T00:53:55;37.51;36.57;38.43;;
67320;Laerm;57665;51.436;5.978;2022-09-17T00:54:06;37.44;36.13;38.42;;
67320;Laerm;57665;51.436;5.978;2022-09-17T00:54:18;37.47;36.36;38.42;;
67320;Laerm;57665;51.436;5.978;2022-09-17T00:54:28;37.52;36.52;38.60;;
67320;Laerm;57665;51.436;5.978;2022-09-17T00:54:39;37.52;36.51;38.54;;
67320;Laerm;57665;51.436;5.978;2022-09-17T00:54:59;37.46;36.57;38.29;;
67320;Laerm;57665;51.436;5.978;2022-09-17T00:55:12;37.54;36.31;40.54;;
67320;Laerm;57665;51.436;5.978;2022-09-17T00:55:27;37.65;36.55;44.34;;
67320;Laerm;57665;51.436;5.978;2022-09-17T00:55:39;37.59;36.43;38.73;;
67320;Laerm;57665;51.436;5.978;2022-09-17T00:56:03;37.75;36.59;40.97;;
67320;Laerm;57665;51.436;5.978;2022-09-17T00:56:21;37.66;36.40;41.88;;
67320;Laerm;57665;51.436;5.978;2022-09-17T00:56:36;37.55;36.14;39.39;;
67320;Laerm;57665;51.436;5.978;2022-09-17T00:56:47;37.53;36.19;38.57;;
67320;Laerm;57665;51.436;5.978;2022-09-17T00:56:58;37.52;36.54;38.54;;
67320;Laerm;57665;51.436;5.978;2022-09-17T00:57:08;37.53;36.50;38.55;;
67320;Laerm;57665;51.436;5.978;2022-09-17T00:57:18;37.53;36.52;38.68;;
67320;Laerm;57665;51.436;5.978;2022-09-17T00:57:29;37.55;36.53;38.79;;
67320;Laerm;57665;51.436;5.978;2022-09-17T00:57:40;37.59;36.44;38.60;;
67320;Laerm;57665;51.436;5.978;2022-09-17T00:57:51;37.55;36.41;38.42;;
67320;Laerm;57665;51.436;5.978;2022-09-17T00:58:04;37.53;36.27;38.52;;
67320;Laerm;57665;51.436;5.978;2022-09-17T00:58:15;37.49;36.56;38.42;;
67320;Laerm;57665;51.436;5.978;2022-09-17T00:58:27;37.47;36.10;38.73;;
67320;Laerm;57665;51.436;5.978;2022-09-17T00:58:38;37.53;36.37;38.53;;
67320;Laerm;57665;51.436;5.978;2022-09-17T00:58:49;37.56;36.36;38.73;;
67320;Laerm;57665;51.436;5.978;2022-09-17T00:59:00;37.60;36.56;38.77;;
67320;Laerm;57665;51.436;5.978;2022-09-17T00:59:12;37.56;36.65;38.57;;
67320;Laerm;57665;51.436;5.978;2022-09-17T00:59:23;37.58;36.51;38.63;;
67320;Laerm;57665;51.436;5.978;2022-09-17T00:59:34;37.66;36.32;38.88;;
67320;Laerm;57665;51.436;5.978;2022-09-17T00:59:44;37.73;36.51;40.57;;
67320;Laerm;57665;51.436;5.978;2022-09-17T00:59:54;37.91;36.80;39.13;;
67320;Laerm;57665;51.436;5.978;2022-09-17T01:00:05;38.00;36.65;39.20;;
67320;Laerm;57665;51.436;5.978;2022-09-17T01:00:17;40.94;37.16;44.00;;
67320;Laerm;57665;51.436;5.978;2022-09-17T01:00:28;37.78;36.78;39.63;;
67320;Laerm;57665;51.436;5.978;2022-09-17T01:00:40;38.87;36.82;52.69;;
67320;Laerm;57665;51.436;5.978;2022-09-17T01:00:50;37.79;36.67;38.91;;
67320;Laerm;57665;51.436;5.978;2022-09-17T01:01:00;40.11;37.13;47.06;;
67320;Laerm;57665;51.436;5.978;2022-09-17T01:01:10;38.00;36.61;40.46;;
67320;Laerm;57665;51.436;5.978;2022-09-17T01:01:20;37.97;36.82;39.21;;
67320;Laerm;57665;51.436;5.978;2022-09-17T01:01:31;38.37;36.86;40.76;;
67320;Laerm;57665;51.436;5.978;2022-09-17T01:01:41;39.11;36.84;42.22;;
67320;Laerm;57665;51.436;5.978;2022-09-17T01:01:51;37.55;36.49;38.57;;
67320;Laerm;57665;51.436;5.978;2022-09-17T01:02:02;37.50;36.57;38.56;;
67320;Laerm;57665;51.436;5.978;2022-09-17T01:02:13;37.51;36.40;38.59;;
67320;Laerm;57665;51.436;5.978;2022-09-17T01:02:24;37.50;36.40;38.35;;
67320;Laerm;57665;51.436;5.978;2022-09-17T01:02:35;37.50;36.49;38.45;;
67320;Laerm;57665;51.436;5.978;2022-09-17T01:02:45;37.45;36.19;38.62;;
67320;Laerm;57665;51.436;5.978;2022-09-17T01:02:56;37.49;36.27;38.58;;
67320;Laerm;57665;51.436;5.978;2022-09-17T01:03:07;37.50;36.04;38.35;;
67320;Laerm;57665;51.436;5.978;2022-09-17T01:03:17;37.46;36.45;38.77;;
67320;Laerm;57665;51.436;5.978;2022-09-17T01:03:28;37.45;36.19;38.44;;
67320;Laerm;57665;51.436;5.978;2022-09-17T01:03:38;37.46;36.42;38.39;;
67320;Laerm;57665;51.436;5.978;2022-09-17T01:03:49;37.45;36.33;38.22;;
67320;Laerm;57665;51.436;5.978;2022-09-17T01:03:59;37.51;36.42;38.75;;
67320;Laerm;57665;51.436;5.978;2022-09-17T01:04:15;37.54;36.14;38.60;;
67320;Laerm;57665;51.436;5.978;2022-09-17T01:04:25;37.50;36.33;39.01;;
67320;Laerm;57665;51.436;5.978;2022-09-17T01:04:36;37.51;36.33;40.66;;